ORER

Erbil International Airport

Arbil, Iraq
TAF ORER 200400Z 2006/2106 33006KT 8000 NSC
Issued Valid From Valid To
Jan-20 @ 04:00 UTC
(7 hours ago)
Jan-20 @ 06:00 UTC
(5 hours ago)
Jan-21 @ 06:00 UTC
(in 19 hours)
Jan-20 @ 06:00 to Jan-21 @ 06:00
TAF ORER 200400Z 2006/2106 33006KT 8000 NSC
Wind Visibility Clouds
330° at 6 knots 7,998 meters
  • No significant clouds
TAF ORER 200400Z 2006/2106 33006KT 8000 NSC
Issued Jan-20 @ 04:00 UTC
(7 hours ago)
Valid From Jan-20 @ 06:00 UTC
(5 hours ago)
Valid To Jan-21 @ 06:00 UTC
(in 19 hours)
Jan-20 @ 06:00 - Jan-21 @ 06:00
Wind Visibility
330° at 6 knots 7,998 meters
Clouds
  • No significant clouds